Time;durP1;ratioP1;P1;durP2;ratioP2;P2;SDS_P1;SDS_P2;PMS_P1;PMS_P2;Temp;Humidity;BMP_temperature;BMP_pressure;BME280_temperature;BME280_humidity;BME280_pressure;Samples;Min_cycle;Max_cycle;Signal;HPM_P1;HPM_P2
2023/10/29 00:01:52;;;;;;;5.60;3.92;;;11.30;99.90;;;;;;5075834;28;20041;-72
2023/10/29 00:04:18;;;;;;;6.22;3.88;;;11.30;99.90;;;;;;5075777;28;20036;-72
2023/10/29 00:06:43;;;;;;;5.55;3.42;;;11.50;99.90;;;;;;5074907;28;20396;-72
2023/10/29 00:09:09;;;;;;;6.15;3.90;;;11.40;99.90;;;;;;5075168;28;20070;-72
2023/10/29 00:11:34;;;;;;;6.50;4.18;;;11.50;99.90;;;;;;5075327;28;20032;-72
2023/10/29 00:14:00;;;;;;;7.18;3.45;;;11.40;99.90;;;;;;5075577;28;20101;-71
2023/10/29 00:16:25;;;;;;;9.80;4.05;;;11.40;99.90;;;;;;5075589;28;20039;-71
2023/10/29 00:18:51;;;;;;;6.47;3.95;;;11.50;99.90;;;;;;5074963;28;20075;-71
2023/10/29 00:21:16;;;;;;;5.15;3.70;;;11.40;99.90;;;;;;5075685;28;20040;-71
2023/10/29 00:23:42;;;;;;;4.72;3.15;;;11.50;99.90;;;;;;5074879;28;20614;-71
2023/10/29 00:26:07;;;;;;;4.85;3.80;;;11.40;99.90;;;;;;5075731;28;20041;-72
2023/10/29 00:28:33;;;;;;;6.03;4.07;;;11.40;99.90;;;;;;5075693;28;20049;-72
2023/10/29 00:30:59;;;;;;;7.55;4.60;;;11.50;99.90;;;;;;5055821;28;20045;-72
2023/10/29 00:33:25;;;;;;;6.15;4.20;;;11.50;99.90;;;;;;5075187;28;20039;-71
2023/10/29 00:35:51;;;;;;;5.63;4.07;;;11.50;99.90;;;;;;5074867;28;20461;-71
2023/10/29 00:38:16;;;;;;;5.47;4.32;;;11.50;99.90;;;;;;5074776;28;20064;-71
2023/10/29 00:40:42;;;;;;;6.57;4.68;;;11.50;99.90;;;;;;5074495;28;20056;-71
2023/10/29 00:43:14;;;;;;;8.20;5.38;;;11.50;99.90;;;;;;5074926;28;20041;-71
2023/10/29 00:45:41;;;;;;;7.72;4.28;;;11.50;99.90;;;;;;5074842;28;20119;-72
2023/10/29 00:48:10;;;;;;;7.25;4.60;;;11.50;99.90;;;;;;5074776;28;20086;-72
2023/10/29 00:50:35;;;;;;;7.47;4.30;;;11.50;99.90;;;;;;5056616;28;20599;-72
2023/10/29 00:53:01;;;;;;;6.20;4.35;;;11.50;99.90;;;;;;5074423;28;20044;-71
2023/10/29 00:55:27;;;;;;;6.15;4.45;;;11.50;99.90;;;;;;5074370;28;20048;-71
2023/10/29 00:57:53;;;;;;;8.23;4.22;;;11.50;99.90;;;;;;5056952;28;20044;-72
2023/10/29 01:00:21;;;;;;;7.70;4.85;;;11.50;99.90;;;;;;5074716;28;20090;-72
2023/10/29 01:02:46;;;;;;;6.38;4.50;;;11.60;99.90;;;;;;5056690;28;20041;-72
2023/10/29 01:05:12;;;;;;;6.72;5.20;;;11.60;99.90;;;;;;5073288;28;20519;-72
2023/10/29 01:07:38;;;;;;;7.75;4.43;;;11.50;99.90;;;;;;5074288;28;20037;-71
2023/10/29 01:10:04;;;;;;;8.93;4.57;;;11.50;99.90;;;;;;5055968;28;20508;-71
2023/10/29 01:12:30;;;;;;;4.65;3.53;;;11.50;99.90;;;;;;5073948;28;20622;-72
2023/10/29 01:14:56;;;;;;;6.40;4.47;;;11.60;99.90;;;;;;5056356;28;20045;-71
2023/10/29 01:17:23;;;;;;;5.82;3.97;;;11.60;99.90;;;;;;5074180;28;20048;-71
2023/10/29 01:19:49;;;;;;;5.85;4.30;;;11.60;99.90;;;;;;5072774;28;20040;-71
2023/10/29 01:22:16;;;;;;;6.55;4.10;;;11.60;99.90;;;;;;5073569;28;20040;-72
2023/10/29 01:24:42;;;;;;;6.15;4.30;;;11.70;99.90;;;;;;5073397;28;20052;-72
2023/10/29 01:27:09;;;;;;;9.45;4.78;;;11.80;99.90;;;;;;5073329;28;20040;-71
2023/10/29 01:29:35;;;;;;;7.28;4.40;;;11.70;99.90;;;;;;5073055;28;20048;-71
2023/10/29 01:32:00;;;;;;;9.13;5.70;;;11.70;99.90;;;;;;5073967;28;20116;-71
2023/10/29 01:34:26;;;;;;;6.20;4.20;;;11.80;99.90;;;;;;5074346;28;20046;-71
2023/10/29 01:36:51;;;;;;;5.13;4.38;;;11.70;99.90;;;;;;5073630;28;20028;-72
2023/10/29 01:39:17;;;;;;;5.78;4.13;;;11.70;99.90;;;;;;5072582;28;20075;-71
2023/10/29 01:41:42;;;;;;;8.32;4.70;;;11.80;99.90;;;;;;5073493;28;20492;-71
2023/10/29 01:44:08;;;;;;;5.07;4.00;;;11.90;99.90;;;;;;5073070;28;20045;-71
2023/10/29 01:46:33;;;;;;;6.30;4.43;;;12.00;99.90;;;;;;5072840;28;20036;-72
2023/10/29 01:49:00;;;;;;;7.22;4.30;;;12.00;99.90;;;;;;5072647;28;20479;-72
2023/10/29 01:51:25;;;;;;;6.82;4.32;;;12.00;99.90;;;;;;5072987;28;20040;-72
2023/10/29 01:53:51;;;;;;;5.07;4.05;;;12.10;99.90;;;;;;5072829;28;20036;-72
2023/10/29 01:56:16;;;;;;;7.13;4.18;;;12.10;99.90;;;;;;5073599;28;20056;-72
2023/10/29 01:58:42;;;;;;;5.63;4.35;;;12.00;99.90;;;;;;5073423;28;20037;-72
2023/10/29 02:01:11;;;;;;;9.10;4.15;;;12.10;99.90;;;;;;5072971;28;20040;-71
2023/10/29 02:03:37;;;;;;;10.90;5.15;;;12.10;99.90;;;;;;5071911;28;20032;-72
2023/10/29 02:06:04;;;;;;;5.93;4.57;;;12.10;99.90;;;;;;5072024;28;20043;-71
2023/10/29 02:08:29;;;;;;;5.63;4.60;;;12.20;99.90;;;;;;5072786;28;20044;-72
2023/10/29 02:10:55;;;;;;;6.25;4.50;;;12.20;99.90;;;;;;5073118;28;20468;-71
2023/10/29 02:13:21;;;;;;;5.18;4.68;;;12.10;99.90;;;;;;5072951;28;20044;-72
2023/10/29 02:15:46;;;;;;;7.75;4.78;;;12.10;99.90;;;;;;5073222;28;20115;-71
2023/10/29 02:18:12;;;;;;;5.65;4.70;;;12.20;99.90;;;;;;5071444;28;20040;-69
2023/10/29 02:20:38;;;;;;;12.48;5.00;;;12.20;99.90;;;;;;5072574;28;20096;-69
2023/10/29 02:23:03;;;;;;;4.70;3.90;;;12.20;99.90;;;;;;5072909;28;20033;-69
2023/10/29 02:25:29;;;;;;;6.53;4.75;;;12.30;99.90;;;;;;5073630;28;20066;-69
2023/10/29 02:27:55;;;;;;;6.85;4.47;;;12.30;99.90;;;;;;5073303;28;20495;-69
2023/10/29 02:30:20;;;;;;;5.55;4.07;;;12.40;99.90;;;;;;5073025;28;20041;-69
2023/10/29 02:32:46;;;;;;;6.03;3.63;;;12.40;99.90;;;;;;5072800;28;20118;-69
2023/10/29 02:35:11;;;;;;;4.22;3.58;;;12.40;99.90;;;;;;5072211;28;20037;-69
2023/10/29 02:37:37;;;;;;;4.82;3.40;;;12.50;99.90;;;;;;5073037;28;21209;-69
2023/10/29 02:40:03;;;;;;;6.78;3.30;;;12.50;99.90;;;;;;5072964;28;20041;-70
2023/10/29 02:42:29;;;;;;;6.78;3.30;;;12.50;99.90;;;;;;5072692;28;20040;-69
2023/10/29 02:44:55;;;;;;;5.90;3.17;;;12.50;99.90;;;;;;5073123;28;20036;-69
2023/10/29 02:47:21;;;;;;;5.88;3.63;;;12.40;99.90;;;;;;5073188;28;20049;-70
2023/10/29 02:49:46;;;;;;;5.18;3.40;;;12.40;99.90;;;;;;5072646;28;20463;-69
2023/10/29 02:52:12;;;;;;;6.57;3.30;;;12.40;99.90;;;;;;5073050;28;20037;-69
2023/10/29 02:54:37;;;;;;;5.22;2.97;;;12.30;99.90;;;;;;5072139;28;20503;-69
2023/10/29 02:57:03;;;;;;;13.25;3.65;;;12.40;99.90;;;;;;5072753;28;20029;-69
2023/10/29 02:59:29;;;;;;;4.47;2.78;;;12.30;99.90;;;;;;5072928;28;20116;-69
2023/10/29 03:01:54;;;;;;;3.83;2.58;;;12.30;99.90;;;;;;5072542;28;20408;-69
2023/10/29 03:04:21;;;;;;;4.05;2.60;;;12.30;99.90;;;;;;5072269;28;20036;-69
2023/10/29 03:06:46;;;;;;;5.43;2.35;;;12.40;99.90;;;;;;5072007;28;20434;-69
2023/10/29 03:09:13;;;;;;;5.03;3.17;;;12.30;99.90;;;;;;5071192;28;20037;-69
2023/10/29 03:11:38;;;;;;;4.22;2.50;;;12.40;99.90;;;;;;5072501;28;20397;-69
2023/10/29 03:14:04;;;;;;;4.35;2.50;;;12.30;99.90;;;;;;5072653;28;20040;-69
2023/10/29 03:16:30;;;;;;;5.25;2.95;;;12.40;99.90;;;;;;5072698;28;20499;-69
2023/10/29 03:18:55;;;;;;;4.18;2.70;;;12.40;99.90;;;;;;5072238;28;20041;-69
2023/10/29 03:21:21;;;;;;;5.07;2.60;;;12.40;99.90;;;;;;5072518;28;20041;-69
2023/10/29 03:23:46;;;;;;;4.90;2.20;;;12.20;99.90;;;;;;5053908;28;20045;-69
2023/10/29 03:26:12;;;;;;;4.40;2.80;;;12.30;99.90;;;;;;5071520;28;20044;-69
2023/10/29 03:28:39;;;;;;;6.35;2.70;;;12.30;99.90;;;;;;5071097;28;20423;-69
2023/10/29 03:31:15;;;;;;;5.35;2.50;;;12.30;99.90;;;;;;5071570;28;20068;-69
2023/10/29 03:33:42;;;;;;;7.00;2.05;;;12.40;99.90;;;;;;5072279;28;20513;-69
2023/10/29 03:36:08;;;;;;;3.78;2.60;;;12.40;99.90;;;;;;5072421;28;20040;-69
2023/10/29 03:38:34;;;;;;;2.67;2.05;;;12.30;99.90;;;;;;5072637;28;20044;-69
2023/10/29 03:41:00;;;;;;;3.45;1.67;;;12.30;99.90;;;;;;5072122;28;20090;-69
2023/10/29 03:43:26;;;;;;;4.85;1.80;;;12.30;99.90;;;;;;5054054;28;20537;-69
2023/10/29 03:45:51;;;;;;;5.00;2.15;;;12.40;99.90;;;;;;5071315;28;20036;-69
2023/10/29 03:48:17;;;;;;;6.43;1.60;;;12.30;99.90;;;;;;5073153;28;20123;-69
2023/10/29 03:50:43;;;;;;;3.63;1.83;;;12.40;99.90;;;;;;5075469;28;20090;-69
2023/10/29 03:53:08;;;;;;;2.53;1.55;;;12.40;99.90;;;;;;5075363;28;20633;-69
2023/10/29 03:55:37;;;;;;;3.13;1.80;;;12.40;99.90;;;;;;5057396;28;20132;-69
2023/10/29 03:58:04;;;;;;;3.30;1.50;;;12.50;99.90;;;;;;5074913;28;20044;-70
2023/10/29 04:00:30;;;;;;;4.38;1.67;;;12.40;99.90;;;;;;5040045;28;20531;-69
2023/10/29 04:02:56;;;;;;;5.00;1.63;;;12.50;99.90;;;;;;5074915;28;20036;-69
2023/10/29 04:05:22;;;;;;;2.95;1.40;;;12.60;99.90;;;;;;5074568;28;20104;-70
2023/10/29 04:07:48;;;;;;;2.22;1.40;;;12.60;99.90;;;;;;5074049;28;20045;-70
2023/10/29 04:10:14;;;;;;;5.07;2.03;;;12.70;99.90;;;;;;5073647;28;20163;-69
2023/10/29 04:12:40;;;;;;;5.32;1.50;;;12.70;99.90;;;;;;5051239;28;20483;-70
2023/10/29 04:15:06;;;;;;;5.22;1.58;;;12.70;99.90;;;;;;5074880;28;20037;-69
2023/10/29 04:17:32;;;;;;;3.92;1.83;;;12.70;99.90;;;;;;5074692;28;20496;-70
2023/10/29 04:19:58;;;;;;;3.88;1.70;;;12.80;99.90;;;;;;5074032;28;20037;-70
2023/10/29 04:22:24;;;;;;;2.95;1.67;;;12.90;99.90;;;;;;5056085;28;20044;-69
2023/10/29 04:24:50;;;;;;;2.42;1.70;;;12.90;99.90;;;;;;5056189;28;20036;-69
2023/10/29 04:27:16;;;;;;;2.25;1.20;;;12.90;99.90;;;;;;5074106;28;20044;-70
2023/10/29 04:29:42;;;;;;;3.17;1.48;;;12.90;99.90;;;;;;5074569;28;20039;-69
2023/10/29 04:32:07;;;;;;;3.67;1.30;;;13.00;99.90;;;;;;5074605;28;20032;-70
2023/10/29 04:34:33;;;;;;;2.33;1.20;;;13.10;99.90;;;;;;5074755;28;20447;-70
2023/10/29 04:36:59;;;;;;;5.55;1.70;;;13.10;99.90;;;;;;5073883;28;20091;-69
2023/10/29 04:39:25;;;;;;;2.28;1.50;;;13.10;99.90;;;;;;5073581;28;20474;-69
2023/10/29 04:41:50;;;;;;;2.17;1.30;;;13.10;99.90;;;;;;5074488;28;20076;-69
2023/10/29 04:44:16;;;;;;;2.28;1.05;;;13.20;99.90;;;;;;5056248;28;20044;-70
2023/10/29 04:46:42;;;;;;;3.25;1.45;;;13.10;99.90;;;;;;5073762;28;20040;-69
2023/10/29 04:49:08;;;;;;;1.80;1.05;;;13.20;99.90;;;;;;5074756;28;20039;-70
2023/10/29 04:51:34;;;;;;;2.22;1.20;;;13.20;99.90;;;;;;5074599;28;20133;-70
2023/10/29 04:54:00;;;;;;;3.17;1.38;;;13.30;99.90;;;;;;5073848;28;20516;-71
2023/10/29 04:56:26;;;;;;;2.97;1.35;;;13.20;99.90;;;;;;5074693;28;20043;-70
2023/10/29 04:58:51;;;;;;;2.15;1.00;;;13.10;99.90;;;;;;5073154;28;20032;-69
2023/10/29 05:01:20;;;;;;;5.35;1.00;;;13.10;99.90;;;;;;5073213;28;20048;-69
2023/10/29 05:03:45;;;;;;;3.58;1.10;;;13.10;99.90;;;;;;5056596;28;20036;-69
2023/10/29 05:06:20;;;;;;;1.90;1.05;;;13.00;99.90;;;;;;5056799;28;20055;-69
2023/10/29 05:08:47;;;;;;;4.97;1.20;;;12.90;99.90;;;;;;5074438;28;20434;-70
2023/10/29 05:11:13;;;;;;;1.65;0.90;;;12.90;99.90;;;;;;5056384;28;20048;-69
2023/10/29 05:13:41;;;;;;;8.75;1.40;;;12.90;99.90;;;;;;5074369;28;20051;-69
2023/10/29 05:16:08;;;;;;;2.45;0.88;;;12.80;99.90;;;;;;5074592;28;20032;-70
2023/10/29 05:18:33;;;;;;;2.15;1.00;;;12.70;99.90;;;;;;5056634;28;20242;-70
2023/10/29 05:20:59;;;;;;;1.98;0.85;;;12.80;99.90;;;;;;5072563;28;20040;-69
2023/10/29 05:23:26;;;;;;;3.70;1.30;;;12.70;99.90;;;;;;5074292;28;20036;-69
2023/10/29 05:25:52;;;;;;;5.05;0.95;;;12.70;99.90;;;;;;5074839;28;20071;-69
2023/10/29 05:28:18;;;;;;;7.50;1.33;;;12.70;99.90;;;;;;5074177;28;20068;-69
2023/10/29 05:30:43;;;;;;;3.63;1.35;;;12.60;99.90;;;;;;5073190;28;20048;-70
2023/10/29 05:33:09;;;;;;;2.55;1.02;;;12.50;99.90;;;;;;5073603;28;20036;-69
2023/10/29 05:35:35;;;;;;;1.88;0.88;;;12.40;99.90;;;;;;5074305;28;20032;-69
2023/10/29 05:38:00;;;;;;;2.83;0.70;;;12.40;99.90;;;;;;5073525;28;20044;-69
2023/10/29 05:40:26;;;;;;;3.00;0.68;;;12.30;99.90;;;;;;5073596;28;20041;-70
2023/10/29 05:42:52;;;;;;;1.58;0.50;;;12.30;99.90;;;;;;5073303;28;20412;-69
2023/10/29 05:45:17;;;;;;;5.22;0.90;;;12.30;99.90;;;;;;5055155;28;20044;-70
2023/10/29 05:47:43;;;;;;;1.17;0.70;;;12.30;99.90;;;;;;5072334;28;20450;-69
2023/10/29 05:50:09;;;;;;;8.82;1.00;;;12.10;99.90;;;;;;5072064;28;20500;-69
2023/10/29 05:52:35;;;;;;;4.03;0.60;;;12.10;99.90;;;;;;5071880;28;20116;-69
2023/10/29 05:55:02;;;;;;;6.07;0.60;;;12.20;99.90;;;;;;5073399;28;20032;-69
2023/10/29 05:57:28;;;;;;;3.50;0.75;;;12.10;99.90;;;;;;5072010;28;20444;-69
2023/10/29 05:59:54;;;;;;;6.75;0.95;;;12.20;99.90;;;;;;5073236;28;20040;-69
2023/10/29 06:02:20;;;;;;;2.60;0.50;;;12.20;99.90;;;;;;5072212;28;20037;-69
2023/10/29 06:04:46;;;;;;;2.20;0.77;;;12.20;99.90;;;;;;5072210;28;20040;-69
2023/10/29 06:07:12;;;;;;;4.80;1.25;;;12.20;99.90;;;;;;5071949;28;20445;-69
2023/10/29 06:09:39;;;;;;;3.33;1.23;;;12.30;99.90;;;;;;5071518;28;20040;-69
2023/10/29 06:12:06;;;;;;;3.33;1.08;;;12.30;99.90;;;;;;5053467;28;20526;-70
2023/10/29 06:14:32;;;;;;;3.15;0.85;;;12.40;99.90;;;;;;5072995;28;20560;-69
2023/10/29 06:16:58;;;;;;;4.25;0.93;;;12.30;99.90;;;;;;5072028;28;20036;-69
2023/10/29 06:19:24;;;;;;;2.28;0.98;;;12.30;99.90;;;;;;5072443;28;20105;-69
2023/10/29 06:21:50;;;;;;;2.80;0.85;;;12.30;99.90;;;;;;5054162;28;20040;-69
2023/10/29 06:24:16;;;;;;;2.28;0.73;;;12.30;99.90;;;;;;5072527;28;20040;-69
2023/10/29 06:26:42;;;;;;;4.30;1.10;;;12.40;99.90;;;;;;5071487;28;20167;-70
2023/10/29 06:29:08;;;;;;;2.63;0.80;;;12.40;99.90;;;;;;5053408;28;20102;-70
2023/10/29 06:31:35;;;;;;;3.85;1.05;;;12.40;99.90;;;;;;5071462;28;20474;-69
2023/10/29 06:34:01;;;;;;;4.07;0.90;;;12.60;99.90;;;;;;5071630;28;20438;-70
2023/10/29 06:36:30;;;;;;;2.70;0.90;;;12.60;99.90;;;;;;5071758;28;20036;-69
2023/10/29 06:38:55;;;;;;;3.28;1.45;;;12.60;99.90;;;;;;5071476;28;20097;-70
2023/10/29 06:41:21;;;;;;;2.50;1.20;;;12.70;99.90;;;;;;5071931;28;20040;-69
2023/10/29 06:43:47;;;;;;;2.03;0.98;;;12.60;99.90;;;;;;5053866;28;20090;-69
2023/10/29 06:46:15;;;;;;;1.95;0.95;;;12.60;99.90;;;;;;5071683;28;20077;-69
2023/10/29 06:48:41;;;;;;;3.28;0.90;;;12.60;99.90;;;;;;5054155;28;20076;-69
2023/10/29 06:51:10;;;;;;;2.03;0.85;;;12.70;99.90;;;;;;5053740;28;20041;-69
2023/10/29 06:53:39;;;;;;;2.45;0.60;;;12.70;99.90;;;;;;5071357;28;20399;-69
2023/10/29 06:56:06;;;;;;;2.25;0.68;;;12.80;99.90;;;;;;5054062;28;20044;-69
2023/10/29 06:58:32;;;;;;;3.38;0.80;;;12.70;99.90;;;;;;5072160;28;20492;-69
2023/10/29 07:01:06;;;;;;;0.60;0.40;;;12.70;99.90;;;;;;5054076;28;20595;-69
2023/10/29 07:03:32;;;;;;;3.55;0.80;;;12.60;99.90;;;;;;5072214;28;20049;-69
2023/10/29 07:06:09;;;;;;;0.93;0.50;;;12.60;99.90;;;;;;5072111;28;20041;-70
2023/10/29 07:08:35;;;;;;;3.30;1.60;;;12.70;99.90;;;;;;5072034;28;20127;-69
2023/10/29 07:11:02;;;;;;;3.17;0.60;;;12.70;99.90;;;;;;5071950;28;20029;-70
2023/10/29 07:13:28;;;;;;;2.28;0.73;;;12.60;99.90;;;;;;5054024;28;20055;-69
2023/10/29 07:15:55;;;;;;;1.90;0.60;;;12.70;99.90;;;;;;5071959;28;20076;-70
2023/10/29 07:18:22;;;;;;;3.15;1.13;;;12.70;99.90;;;;;;5054534;28;20044;-70
2023/10/29 07:20:52;;;;;;;3.20;0.90;;;12.70;99.90;;;;;;5053813;28;20504;-70
2023/10/29 07:23:18;;;;;;;4.22;0.75;;;12.80;99.90;;;;;;5056327;28;20430;-70
2023/10/29 07:25:44;;;;;;;3.10;0.85;;;12.80;99.90;;;;;;5075920;28;20043;-70
2023/10/29 07:28:10;;;;;;;2.70;0.93;;;12.80;99.90;;;;;;5057412;28;20048;-70
2023/10/29 07:30:35;;;;;;;3.80;0.80;;;12.90;99.90;;;;;;5058209;28;20131;-70
2023/10/29 07:33:01;;;;;;;1.65;0.70;;;12.90;99.90;;;;;;5057771;28;20082;-70
2023/10/29 07:35:26;;;;;;;2.45;0.80;;;13.00;99.90;;;;;;5058552;28;20037;-71
2023/10/29 07:37:52;;;;;;;2.20;0.65;;;13.10;99.90;;;;;;5075025;28;20082;-70
2023/10/29 07:40:18;;;;;;;4.00;0.80;;;13.10;99.90;;;;;;5074733;28;20047;-69
2023/10/29 07:42:43;;;;;;;5.07;0.75;;;13.00;99.90;;;;;;5057020;28;20123;-69
2023/10/29 07:45:09;;;;;;;2.40;0.77;;;12.90;99.90;;;;;;5074770;28;20039;-69
2023/10/29 07:47:37;;;;;;;2.72;0.95;;;12.90;99.90;;;;;;5074512;28;20083;-69
2023/10/29 07:50:04;;;;;;;4.35;0.80;;;12.90;99.90;;;;;;5074352;28;20068;-70
2023/10/29 07:52:30;;;;;;;3.67;0.80;;;12.90;99.90;;;;;;5056645;28;20032;-69
2023/10/29 07:54:55;;;;;;;3.53;1.00;;;12.90;99.90;;;;;;5056412;28;20041;-69
2023/10/29 07:57:21;;;;;;;3.38;0.90;;;12.80;99.90;;;;;;5074463;28;20033;-70
2023/10/29 07:59:47;;;;;;;3.22;1.00;;;12.90;99.90;;;;;;5073986;28;20068;-70
2023/10/29 08:02:12;;;;;;;3.03;1.52;;;12.90;99.90;;;;;;5073975;28;20032;-70
2023/10/29 08:04:38;;;;;;;3.47;1.00;;;12.90;99.90;;;;;;5074225;28;20054;-70
2023/10/29 08:07:04;;;;;;;3.08;0.80;;;12.80;99.90;;;;;;5074380;28;20201;-71
2023/10/29 08:09:29;;;;;;;3.65;0.88;;;12.90;99.90;;;;;;5074481;28;20045;-71
2023/10/29 08:11:55;;;;;;;4.32;1.00;;;13.10;99.90;;;;;;5074716;28;20404;-71
2023/10/29 08:14:20;;;;;;;4.18;1.27;;;13.10;99.90;;;;;;5075284;28;20036;-70
2023/10/29 08:16:46;;;;;;;1.58;0.68;;;13.20;99.90;;;;;;5075133;28;20033;-70
2023/10/29 08:19:12;;;;;;;2.67;1.00;;;13.30;99.90;;;;;;5075211;28;20053;-70
2023/10/29 08:21:37;;;;;;;3.13;1.05;;;13.40;99.90;;;;;;5074716;28;20067;-70
2023/10/29 08:24:03;;;;;;;5.22;0.70;;;13.40;99.90;;;;;;5083345;28;20576;-71
2023/10/29 08:26:31;;;;;;;3.13;0.75;;;13.40;99.90;;;;;;5082590;28;20068;-70
2023/10/29 08:28:57;;;;;;;5.22;1.45;;;13.30;99.90;;;;;;5074202;28;20557;-71
2023/10/29 08:31:22;;;;;;;6.10;1.23;;;13.40;99.90;;;;;;5073812;28;20032;-70
2023/10/29 08:33:49;;;;;;;5.25;1.50;;;13.40;99.90;;;;;;5073478;28;20039;-71
2023/10/29 08:36:18;;;;;;;3.00;1.38;;;13.40;99.90;;;;;;5074767;28;20086;-71
2023/10/29 08:38:44;;;;;;;3.63;1.20;;;13.40;99.90;;;;;;5074251;28;20492;-71
2023/10/29 08:41:17;;;;;;;2.85;0.80;;;13.50;99.90;;;;;;5074215;28;20054;-71
2023/10/29 08:43:43;;;;;;;7.47;1.10;;;13.50;99.90;;;;;;5074250;28;20044;-70
2023/10/29 08:46:08;;;;;;;3.95;0.80;;;13.50;99.90;;;;;;5075012;28;20056;-72
2023/10/29 08:48:34;;;;;;;5.00;1.08;;;13.50;99.90;;;;;;5057056;28;20056;-71
2023/10/29 08:51:00;;;;;;;2.67;1.17;;;13.60;99.90;;;;;;5056450;28;20039;-72
2023/10/29 08:53:25;;;;;;;7.03;1.15;;;13.60;99.90;;;;;;5073455;28;20117;-73
2023/10/29 08:55:52;;;;;;;4.55;1.27;;;13.50;99.90;;;;;;5053321;28;20058;-72
2023/10/29 08:58:20;;;;;;;2.60;0.90;;;13.60;99.90;;;;;;5061874;28;20087;-72
2023/10/29 09:00:46;;;;;;;4.57;0.70;;;13.70;99.90;;;;;;5029497;28;20037;-73
2023/10/29 09:03:13;;;;;;;2.13;0.60;;;13.60;99.90;;;;;;5070624;28;20036;-74
2023/10/29 09:05:39;;;;;;;5.30;1.50;;;13.60;99.90;;;;;;5041159;28;20045;-75
2023/10/29 09:08:06;;;;;;;2.53;0.70;;;13.60;99.90;;;;;;5055248;28;20078;-75
2023/10/29 09:10:32;;;;;;;3.47;1.08;;;13.50;99.90;;;;;;5059724;28;20052;-75
2023/10/29 09:12:58;;;;;;;3.25;1.40;;;13.50;99.90;;;;;;5068484;28;20033;-75
2023/10/29 09:15:24;;;;;;;3.60;0.70;;;13.50;99.90;;;;;;5045838;28;20412;-73
2023/10/29 09:17:49;;;;;;;3.67;1.15;;;13.50;99.90;;;;;;5071579;28;20040;-73
2023/10/29 09:20:15;;;;;;;2.53;0.85;;;13.50;99.90;;;;;;5073607;28;20142;-73
2023/10/29 09:22:41;;;;;;;1.88;0.90;;;13.60;99.90;;;;;;5057305;28;20048;-74
2023/10/29 09:25:06;;;;;;;3.30;0.65;;;13.80;99.90;;;;;;5058646;28;20043;-75
2023/10/29 09:27:32;;;;;;;9.63;0.90;;;13.80;99.90;;;;;;5077653;28;20044;-74
2023/10/29 09:29:57;;;;;;;6.90;0.85;;;13.90;99.90;;;;;;5070618;28;20029;-74
2023/10/29 09:32:26;;;;;;;5.20;1.30;;;13.90;99.90;;;;;;5066014;28;20087;-75
2023/10/29 09:34:52;;;;;;;6.13;1.20;;;13.90;99.90;;;;;;5056253;28;20068;-75
2023/10/29 09:37:17;;;;;;;3.88;0.73;;;13.90;99.90;;;;;;5073541;28;20064;-74
2023/10/29 09:39:43;;;;;;;3.95;0.98;;;13.90;99.90;;;;;;5073193;28;20641;-76
2023/10/29 09:42:11;;;;;;;1.98;0.77;;;13.90;99.90;;;;;;5040193;28;20032;-76
2023/10/29 09:44:40;;;;;;;4.63;0.60;;;13.90;99.90;;;;;;5040846;28;20056;-75
2023/10/29 09:47:17;;;;;;;3.45;0.63;;;13.90;99.90;;;;;;5073326;28;20056;-75
2023/10/29 09:49:43;;;;;;;4.05;0.90;;;13.90;99.90;;;;;;5054529;28;20052;-76
2023/10/29 09:52:09;;;;;;;5.63;0.80;;;13.80;99.90;;;;;;5056182;28;20033;-75
2023/10/29 09:54:37;;;;;;;3.15;0.70;;;13.80;99.90;;;;;;5037669;28;20047;-75
2023/10/29 09:57:03;;;;;;;2.15;0.63;;;13.80;99.90;;;;;;5055915;28;20044;-75
2023/10/29 09:59:29;;;;;;;5.25;0.90;;;13.80;99.90;;;;;;5056407;28;20444;-74
2023/10/29 10:01:54;;;;;;;4.97;1.45;;;13.80;99.90;;;;;;5054503;28;20190;-76
2023/10/29 10:04:20;;;;;;;5.50;2.00;;;13.80;99.90;;;;;;5066796;28;20045;-76
2023/10/29 10:06:48;;;;;;;9.15;1.58;;;13.80;99.90;;;;;;5047412;28;20032;-74
2023/10/29 10:09:14;;;;;;;4.03;1.30;;;13.80;99.90;;;;;;5054968;28;20040;-74
2023/10/29 10:11:39;;;;;;;4.80;1.23;;;13.90;99.90;;;;;;5056346;28;20048;-74
2023/10/29 10:14:05;;;;;;;5.13;1.30;;;13.90;99.90;;;;;;5075016;28;20108;-74
2023/10/29 10:16:31;;;;;;;7.93;2.22;;;14.00;99.90;;;;;;5073568;28;20438;-74
2023/10/29 10:18:57;;;;;;;3.83;1.33;;;14.00;99.90;;;;;;5073236;28;20448;-74
2023/10/29 10:21:43;;;;;;;4.35;1.10;;;14.10;99.90;;;;;;5072991;28;20040;-74
2023/10/29 10:24:09;;;;;;;3.35;1.10;;;14.20;99.90;;;;;;5054295;28;20571;-73
2023/10/29 10:26:36;;;;;;;5.60;1.98;;;14.20;99.90;;;;;;5055207;28;20123;-74
2023/10/29 10:29:04;;;;;;;4.63;1.83;;;14.30;99.90;;;;;;5055383;28;20037;-74
2023/10/29 10:31:35;;;;;;;5.25;1.20;;;14.20;99.90;;;;;;5067334;28;20111;-73
2023/10/29 10:34:17;;;;;;;5.15;1.27;;;14.20;99.90;;;;;;5032426;28;20450;-75
2023/10/29 10:36:44;;;;;;;4.20;1.65;;;14.30;99.90;;;;;;5051335;28;20043;-74
2023/10/29 10:39:10;;;;;;;4.53;1.15;;;14.30;99.90;;;;;;5054916;28;20046;-75
2023/10/29 10:41:45;;;;;;;3.40;1.27;;;14.30;99.90;;;;;;5039858;28;20496;-73
2023/10/29 10:44:15;;;;;;;5.45;1.40;;;14.20;99.90;;;;;;5053183;28;20041;-74
2023/10/29 10:47:00;;;;;;;7.60;1.42;;;14.20;99.90;;;;;;5034584;28;20420;-75
2023/10/29 10:49:26;;;;;;;6.80;1.95;;;14.10;99.90;;;;;;5052042;28;20068;-73
2023/10/29 10:51:56;;;;;;;5.97;1.40;;;14.10;99.90;;;;;;5052141;28;20124;-72
2023/10/29 10:54:22;;;;;;;4.60;1.50;;;14.00;99.90;;;;;;5053130;28;20091;-73
2023/10/29 10:56:50;;;;;;;5.95;1.40;;;14.00;99.90;;;;;;5054050;28;20416;-73
2023/10/29 10:59:16;;;;;;;7.10;1.10;;;13.90;99.90;;;;;;5021847;28;20431;-73
2023/10/29 11:01:42;;;;;;;2.53;1.17;;;14.00;99.90;;;;;;5056316;28;20053;-75
2023/10/29 11:04:08;;;;;;;3.58;1.33;;;14.10;99.90;;;;;;5064244;28;20041;-72
2023/10/29 11:06:39;;;;;;;6.70;1.25;;;14.10;99.90;;;;;;5084548;28;20477;-72
2023/10/29 11:09:12;;;;;;;6.22;1.77;;;14.10;99.90;;;;;;5066493;28;20055;-73
2023/10/29 11:11:53;;;;;;;7.05;1.30;;;14.10;99.90;;;;;;5067292;28;20411;-73
2023/10/29 11:14:20;;;;;;;5.38;1.65;;;14.00;99.90;;;;;;5085583;28;20047;-74
2023/10/29 11:16:56;;;;;;;6.30;1.40;;;14.00;99.90;;;;;;5075593;28;20044;-73
2023/10/29 11:19:44;;;;;;;5.32;1.70;;;14.00;99.90;;;;;;5097773;28;20036;-73
2023/10/29 11:22:27;;;;;;;4.43;1.30;;;14.00;99.90;;;;;;5098970;28;20082;-73
2023/10/29 11:25:05;;;;;;;8.68;1.73;;;14.00;99.90;;;;;;5098989;28;20042;-73
2023/10/29 11:27:33;;;;;;;5.55;1.77;;;14.00;99.90;;;;;;5096623;28;20051;-74
2023/10/29 11:30:15;;;;;;;6.35;1.80;;;14.10;99.90;;;;;;5079040;28;20352;-73
2023/10/29 11:32:41;;;;;;;5.82;1.55;;;14.10;99.90;;;;;;5077213;28;20472;-73
2023/10/29 11:35:19;;;;;;;6.90;1.73;;;14.10;99.90;;;;;;5077769;28;20040;-73
2023/10/29 11:37:45;;;;;;;10.18;1.75;;;14.10;99.90;;;;;;5078073;28;20039;-73
2023/10/29 11:40:24;;;;;;;5.28;2.05;;;14.20;99.90;;;;;;5077134;28;20135;-72
2023/10/29 11:43:20;;;;;;;4.28;1.40;;;14.20;99.90;;;;;;5076827;28;20060;-72
2023/10/29 11:45:59;;;;;;;4.90;1.33;;;14.20;99.90;;;;;;5080212;28;20119;-73
2023/10/29 11:48:25;;;;;;;5.68;1.45;;;14.10;99.90;;;;;;5068836;28;20032;-73
2023/10/29 11:51:03;;;;;;;5.15;1.33;;;14.10;99.90;;;;;;5090969;28;20101;-73
2023/10/29 11:53:29;;;;;;;7.53;1.50;;;14.10;99.90;;;;;;5061434;28;20029;-73
2023/10/29 11:55:59;;;;;;;8.57;1.83;;;14.10;99.90;;;;;;5061021;28;20041;-73
2023/10/29 11:58:26;;;;;;;6.10;1.63;;;14.10;99.90;;;;;;5065089;28;20504;-73
2023/10/29 12:00:53;;;;;;;5.38;1.63;;;14.10;99.90;;;;;;5066485;28;20040;-73
2023/10/29 12:03:20;;;;;;;4.85;1.52;;;14.10;99.90;;;;;;5068288;28;20572;-73
2023/10/29 12:05:55;;;;;;;3.75;1.58;;;14.10;99.90;;;;;;5084852;28;20032;-72
2023/10/29 12:08:22;;;;;;;6.13;2.03;;;14.10;99.90;;;;;;5059034;28;20043;-73
2023/10/29 12:10:52;;;;;;;8.38;1.83;;;14.20;99.90;;;;;;5090997;28;20048;-73
2023/10/29 12:13:18;;;;;;;6.50;1.55;;;14.10;99.90;;;;;;5057649;28;20041;-73
2023/10/29 12:16:07;;;;;;;8.32;1.85;;;14.10;99.90;;;;;;5057805;28;20653;-73
2023/10/29 12:18:33;;;;;;;4.13;1.13;;;14.10;99.90;;;;;;5057962;28;20065;-73
2023/10/29 12:21:03;;;;;;;10.65;1.35;;;14.20;99.90;;;;;;5061981;28;20083;-72
2023/10/29 12:23:30;;;;;;;5.53;1.30;;;14.10;99.90;;;;;;5067321;28;20043;-72
2023/10/29 12:25:56;;;;;;;5.35;1.77;;;14.20;99.90;;;;;;5084132;28;20511;-72
2023/10/29 12:28:22;;;;;;;3.45;0.70;;;14.20;99.90;;;;;;5065864;28;20079;-73
2023/10/29 12:30:50;;;;;;;9.00;1.23;;;14.20;99.90;;;;;;5066934;28;20036;-72
2023/10/29 12:33:24;;;;;;;10.00;1.92;;;14.20;99.90;;;;;;5083233;28;20047;-72
2023/10/29 12:35:50;;;;;;;9.10;2.28;;;14.20;99.90;;;;;;5075267;28;20045;-72
2023/10/29 12:38:20;;;;;;;7.70;1.00;;;14.20;99.90;;;;;;5089893;28;20052;-71
2023/10/29 12:41:13;;;;;;;7.45;1.30;;;14.10;99.90;;;;;;5056605;28;20041;-72
2023/10/29 12:43:40;;;;;;;8.48;1.70;;;14.20;99.90;;;;;;5056145;28;20071;-72
2023/10/29 12:46:10;;;;;;;5.68;1.20;;;14.10;99.90;;;;;;5073708;28;20403;-72